sensor_id;sensor_type;location;lat;lon;timestamp;P1;durP1;ratioP1;P2;durP2;ratioP2
50555;SDS011;36508;52.512;13.450;2023-08-17T00:00:53;4.20;;;3.90;;
50555;SDS011;36508;52.512;13.450;2023-08-17T00:03:18;5.33;;;4.07;;
50555;SDS011;36508;52.512;13.450;2023-08-17T00:05:44;5.13;;;4.77;;
50555;SDS011;36508;52.512;13.450;2023-08-17T00:08:10;3.63;;;3.37;;
50555;SDS011;36508;52.512;13.450;2023-08-17T00:10:35;3.87;;;3.67;;
50555;SDS011;36508;52.512;13.450;2023-08-17T00:13:09;4.13;;;3.77;;
50555;SDS011;36508;52.512;13.450;2023-08-17T00:15:35;6.20;;;4.57;;
50555;SDS011;36508;52.512;13.450;2023-08-17T00:18:01;4.33;;;3.93;;
50555;SDS011;36508;52.512;13.450;2023-08-17T00:20:27;6.70;;;3.90;;
50555;SDS011;36508;52.512;13.450;2023-08-17T00:22:52;5.63;;;3.87;;
50555;SDS011;36508;52.512;13.450;2023-08-17T00:25:18;4.43;;;4.10;;
50555;SDS011;36508;52.512;13.450;2023-08-17T00:27:43;3.97;;;3.50;;
50555;SDS011;36508;52.512;13.450;2023-08-17T00:30:09;4.60;;;4.20;;
50555;SDS011;36508;52.512;13.450;2023-08-17T00:32:35;4.03;;;3.83;;
50555;SDS011;36508;52.512;13.450;2023-08-17T00:35:02;4.80;;;4.40;;
50555;SDS011;36508;52.512;13.450;2023-08-17T00:37:27;4.90;;;4.50;;
50555;SDS011;36508;52.512;13.450;2023-08-17T00:39:53;4.73;;;3.97;;
50555;SDS011;36508;52.512;13.450;2023-08-17T00:42:18;4.53;;;4.20;;
50555;SDS011;36508;52.512;13.450;2023-08-17T00:44:44;6.07;;;5.03;;
50555;SDS011;36508;52.512;13.450;2023-08-17T00:47:09;6.87;;;5.60;;
50555;SDS011;36508;52.512;13.450;2023-08-17T00:49:35;4.93;;;4.53;;
50555;SDS011;36508;52.512;13.450;2023-08-17T00:52:01;3.77;;;3.57;;
50555;SDS011;36508;52.512;13.450;2023-08-17T00:54:28;6.07;;;3.77;;
50555;SDS011;36508;52.512;13.450;2023-08-17T00:56:54;4.10;;;3.70;;
50555;SDS011;36508;52.512;13.450;2023-08-17T00:59:21;4.43;;;4.13;;
50555;SDS011;36508;52.512;13.450;2023-08-17T01:01:47;3.97;;;3.67;;
50555;SDS011;36508;52.512;13.450;2023-08-17T01:04:14;4.60;;;4.30;;
50555;SDS011;36508;52.512;13.450;2023-08-17T01:06:41;5.90;;;4.40;;
50555;SDS011;36508;52.512;13.450;2023-08-17T01:09:06;6.03;;;5.30;;
50555;SDS011;36508;52.512;13.450;2023-08-17T01:11:39;5.27;;;4.80;;
50555;SDS011;36508;52.512;13.450;2023-08-17T01:14:17;6.83;;;6.33;;
50555;SDS011;36508;52.512;13.450;2023-08-17T01:17:06;7.00;;;6.37;;
50555;SDS011;36508;52.512;13.450;2023-08-17T01:19:42;6.80;;;5.00;;
50555;SDS011;36508;52.512;13.450;2023-08-17T01:22:10;5.60;;;5.13;;
50555;SDS011;36508;52.512;13.450;2023-08-17T01:24:38;4.67;;;4.40;;
50555;SDS011;36508;52.512;13.450;2023-08-17T01:27:03;5.70;;;5.20;;
50555;SDS011;36508;52.512;13.450;2023-08-17T01:29:29;4.93;;;4.53;;
50555;SDS011;36508;52.512;13.450;2023-08-17T01:32:01;4.80;;;4.50;;
50555;SDS011;36508;52.512;13.450;2023-08-17T01:34:40;6.23;;;4.70;;
50555;SDS011;36508;52.512;13.450;2023-08-17T01:37:09;3.80;;;3.60;;
50555;SDS011;36508;52.512;13.450;2023-08-17T01:39:39;3.47;;;3.20;;
50555;SDS011;36508;52.512;13.450;2023-08-17T01:42:09;3.90;;;3.60;;
50555;SDS011;36508;52.512;13.450;2023-08-17T01:44:37;3.50;;;3.30;;
50555;SDS011;36508;52.512;13.450;2023-08-17T01:47:04;4.77;;;4.47;;
50555;SDS011;36508;52.512;13.450;2023-08-17T01:49:29;7.27;;;4.50;;
50555;SDS011;36508;52.512;13.450;2023-08-17T01:51:55;3.90;;;3.60;;
50555;SDS011;36508;52.512;13.450;2023-08-17T01:54:20;4.17;;;3.20;;
50555;SDS011;36508;52.512;13.450;2023-08-17T01:56:46;5.33;;;4.00;;
50555;SDS011;36508;52.512;13.450;2023-08-17T01:59:12;4.30;;;3.60;;
50555;SDS011;36508;52.512;13.450;2023-08-17T02:01:38;3.67;;;3.10;;
50555;SDS011;36508;52.512;13.450;2023-08-17T02:04:03;6.10;;;3.73;;
50555;SDS011;36508;52.512;13.450;2023-08-17T02:06:29;6.13;;;5.67;;
50555;SDS011;36508;52.512;13.450;2023-08-17T02:08:55;6.93;;;4.30;;
50555;SDS011;36508;52.512;13.450;2023-08-17T02:11:20;3.97;;;3.53;;
50555;SDS011;36508;52.512;13.450;2023-08-17T02:13:46;6.30;;;4.30;;
50555;SDS011;36508;52.512;13.450;2023-08-17T02:16:11;4.70;;;4.10;;
50555;SDS011;36508;52.512;13.450;2023-08-17T02:18:37;4.27;;;3.87;;
50555;SDS011;36508;52.512;13.450;2023-08-17T02:21:03;3.80;;;3.60;;
50555;SDS011;36508;52.512;13.450;2023-08-17T02:23:28;4.90;;;3.47;;
50555;SDS011;36508;52.512;13.450;2023-08-17T02:25:54;3.87;;;3.40;;
50555;SDS011;36508;52.512;13.450;2023-08-17T02:28:19;4.27;;;3.93;;
50555;SDS011;36508;52.512;13.450;2023-08-17T02:30:45;4.23;;;3.93;;
50555;SDS011;36508;52.512;13.450;2023-08-17T02:33:11;3.90;;;3.70;;
50555;SDS011;36508;52.512;13.450;2023-08-17T02:35:37;4.20;;;3.47;;
50555;SDS011;36508;52.512;13.450;2023-08-17T02:38:02;3.77;;;3.00;;
50555;SDS011;36508;52.512;13.450;2023-08-17T02:42:57;5.17;;;3.33;;
50555;SDS011;36508;52.512;13.450;2023-08-17T02:45:22;4.10;;;3.80;;
50555;SDS011;36508;52.512;13.450;2023-08-17T02:47:48;4.53;;;4.03;;
50555;SDS011;36508;52.512;13.450;2023-08-17T02:50:14;4.40;;;4.10;;
50555;SDS011;36508;52.512;13.450;2023-08-17T02:52:39;4.83;;;4.37;;
50555;SDS011;36508;52.512;13.450;2023-08-17T02:55:05;4.00;;;3.70;;
50555;SDS011;36508;52.512;13.450;2023-08-17T02:57:31;3.70;;;3.40;;
50555;SDS011;36508;52.512;13.450;2023-08-17T02:59:59;3.67;;;3.33;;
50555;SDS011;36508;52.512;13.450;2023-08-17T03:02:24;4.87;;;3.80;;
50555;SDS011;36508;52.512;13.450;2023-08-17T03:04:50;4.03;;;3.60;;
50555;SDS011;36508;52.512;13.450;2023-08-17T03:07:15;6.60;;;4.40;;
50555;SDS011;36508;52.512;13.450;2023-08-17T03:09:41;3.73;;;3.37;;
50555;SDS011;36508;52.512;13.450;2023-08-17T03:12:06;3.53;;;3.33;;
50555;SDS011;36508;52.512;13.450;2023-08-17T03:14:32;4.87;;;3.37;;
50555;SDS011;36508;52.512;13.450;2023-08-17T03:16:58;7.00;;;3.83;;
50555;SDS011;36508;52.512;13.450;2023-08-17T03:19:24;6.13;;;3.70;;
50555;SDS011;36508;52.512;13.450;2023-08-17T03:21:49;6.30;;;3.40;;
50555;SDS011;36508;52.512;13.450;2023-08-17T03:24:15;3.50;;;3.30;;
50555;SDS011;36508;52.512;13.450;2023-08-17T03:26:40;4.00;;;3.60;;
50555;SDS011;36508;52.512;13.450;2023-08-17T03:29:06;3.20;;;2.63;;
50555;SDS011;36508;52.512;13.450;2023-08-17T03:31:33;4.00;;;3.70;;
50555;SDS011;36508;52.512;13.450;2023-08-17T03:33:59;4.03;;;3.43;;
50555;SDS011;36508;52.512;13.450;2023-08-17T03:36:25;4.93;;;4.43;;
50555;SDS011;36508;52.512;13.450;2023-08-17T03:38:50;3.70;;;3.40;;
50555;SDS011;36508;52.512;13.450;2023-08-17T03:41:16;8.10;;;7.07;;
50555;SDS011;36508;52.512;13.450;2023-08-17T03:43:42;4.30;;;3.73;;
50555;SDS011;36508;52.512;13.450;2023-08-17T03:46:07;4.30;;;3.90;;
50555;SDS011;36508;52.512;13.450;2023-08-17T03:48:33;4.50;;;3.30;;
50555;SDS011;36508;52.512;13.450;2023-08-17T03:50:58;3.80;;;3.40;;
50555;SDS011;36508;52.512;13.450;2023-08-17T03:53:24;4.57;;;3.73;;
50555;SDS011;36508;52.512;13.450;2023-08-17T03:55:49;3.57;;;3.10;;
50555;SDS011;36508;52.512;13.450;2023-08-17T03:58:16;3.90;;;3.27;;
50555;SDS011;36508;52.512;13.450;2023-08-17T04:00:48;3.97;;;3.57;;
50555;SDS011;36508;52.512;13.450;2023-08-17T04:03:17;7.10;;;4.17;;
50555;SDS011;36508;52.512;13.450;2023-08-17T04:05:44;9.30;;;3.00;;
50555;SDS011;36508;52.512;13.450;2023-08-17T04:08:09;4.83;;;3.93;;
50555;SDS011;36508;52.512;13.450;2023-08-17T04:10:35;4.20;;;3.90;;
50555;SDS011;36508;52.512;13.450;2023-08-17T04:13:00;5.27;;;4.77;;
50555;SDS011;36508;52.512;13.450;2023-08-17T04:15:26;6.43;;;4.20;;
50555;SDS011;36508;52.512;13.450;2023-08-17T04:17:51;4.67;;;4.27;;
50555;SDS011;36508;52.512;13.450;2023-08-17T04:20:17;4.00;;;3.40;;
50555;SDS011;36508;52.512;13.450;2023-08-17T04:22:46;4.10;;;3.67;;
50555;SDS011;36508;52.512;13.450;2023-08-17T04:25:12;4.57;;;4.00;;
50555;SDS011;36508;52.512;13.450;2023-08-17T04:27:38;5.87;;;3.90;;
50555;SDS011;36508;52.512;13.450;2023-08-17T04:30:04;3.57;;;3.40;;
50555;SDS011;36508;52.512;13.450;2023-08-17T04:32:30;5.47;;;5.13;;
50555;SDS011;36508;52.512;13.450;2023-08-17T04:34:56;4.10;;;3.60;;
50555;SDS011;36508;52.512;13.450;2023-08-17T04:37:22;5.20;;;3.50;;
50555;SDS011;36508;52.512;13.450;2023-08-17T04:39:47;5.37;;;2.93;;
50555;SDS011;36508;52.512;13.450;2023-08-17T04:42:14;4.00;;;3.33;;
50555;SDS011;36508;52.512;13.450;2023-08-17T04:44:40;3.53;;;3.23;;
50555;SDS011;36508;52.512;13.450;2023-08-17T04:47:05;3.90;;;3.60;;
50555;SDS011;36508;52.512;13.450;2023-08-17T04:49:31;3.23;;;2.80;;
50555;SDS011;36508;52.512;13.450;2023-08-17T04:51:57;3.37;;;3.17;;
50555;SDS011;36508;52.512;13.450;2023-08-17T04:54:22;3.90;;;3.63;;
50555;SDS011;36508;52.512;13.450;2023-08-17T04:56:48;4.27;;;3.77;;
50555;SDS011;36508;52.512;13.450;2023-08-17T04:59:13;3.83;;;3.57;;
50555;SDS011;36508;52.512;13.450;2023-08-17T05:01:39;5.53;;;2.60;;
50555;SDS011;36508;52.512;13.450;2023-08-17T05:04:04;4.17;;;3.60;;
50555;SDS011;36508;52.512;13.450;2023-08-17T05:06:30;3.40;;;3.10;;
50555;SDS011;36508;52.512;13.450;2023-08-17T05:08:56;4.27;;;3.97;;
50555;SDS011;36508;52.512;13.450;2023-08-17T05:11:22;4.50;;;3.87;;
50555;SDS011;36508;52.512;13.450;2023-08-17T05:13:48;4.73;;;4.17;;
50555;SDS011;36508;52.512;13.450;2023-08-17T05:16:14;3.50;;;3.30;;
50555;SDS011;36508;52.512;13.450;2023-08-17T05:18:39;3.70;;;3.10;;
50555;SDS011;36508;52.512;13.450;2023-08-17T05:21:05;3.70;;;3.50;;
50555;SDS011;36508;52.512;13.450;2023-08-17T05:23:31;8.40;;;3.83;;
50555;SDS011;36508;52.512;13.450;2023-08-17T05:25:56;3.90;;;3.60;;
50555;SDS011;36508;52.512;13.450;2023-08-17T05:28:22;5.10;;;4.47;;
50555;SDS011;36508;52.512;13.450;2023-08-17T05:30:48;3.53;;;3.23;;
50555;SDS011;36508;52.512;13.450;2023-08-17T05:33:14;3.53;;;3.33;;
50555;SDS011;36508;52.512;13.450;2023-08-17T05:35:39;2.80;;;2.70;;
50555;SDS011;36508;52.512;13.450;2023-08-17T05:38:05;4.30;;;3.67;;
50555;SDS011;36508;52.512;13.450;2023-08-17T05:40:31;3.50;;;3.30;;
50555;SDS011;36508;52.512;13.450;2023-08-17T05:42:57;3.17;;;3.07;;
50555;SDS011;36508;52.512;13.450;2023-08-17T05:45:22;4.30;;;3.70;;
50555;SDS011;36508;52.512;13.450;2023-08-17T05:47:48;3.70;;;3.47;;
50555;SDS011;36508;52.512;13.450;2023-08-17T05:50:14;3.57;;;3.27;;
50555;SDS011;36508;52.512;13.450;2023-08-17T05:52:42;2.97;;;2.77;;
50555;SDS011;36508;52.512;13.450;2023-08-17T05:55:07;3.50;;;3.00;;
50555;SDS011;36508;52.512;13.450;2023-08-17T05:57:33;7.07;;;2.90;;
50555;SDS011;36508;52.512;13.450;2023-08-17T05:59:59;5.70;;;3.43;;
50555;SDS011;36508;52.512;13.450;2023-08-17T06:02:24;3.27;;;2.97;;
50555;SDS011;36508;52.512;13.450;2023-08-17T06:04:50;3.10;;;3.00;;
50555;SDS011;36508;52.512;13.450;2023-08-17T06:07:15;3.70;;;3.30;;
50555;SDS011;36508;52.512;13.450;2023-08-17T06:09:41;4.50;;;3.10;;
50555;SDS011;36508;52.512;13.450;2023-08-17T06:12:07;3.33;;;3.13;;
50555;SDS011;36508;52.512;13.450;2023-08-17T06:14:33;3.63;;;3.43;;
50555;SDS011;36508;52.512;13.450;2023-08-17T06:16:59;4.10;;;3.10;;
50555;SDS011;36508;52.512;13.450;2023-08-17T06:19:24;3.27;;;3.07;;
50555;SDS011;36508;52.512;13.450;2023-08-17T06:21:50;3.83;;;3.53;;
50555;SDS011;36508;52.512;13.450;2023-08-17T06:24:15;3.70;;;3.50;;
50555;SDS011;36508;52.512;13.450;2023-08-17T06:26:41;4.00;;;3.70;;
50555;SDS011;36508;52.512;13.450;2023-08-17T06:29:07;2.90;;;2.80;;
50555;SDS011;36508;52.512;13.450;2023-08-17T06:31:33;4.20;;;3.87;;
50555;SDS011;36508;52.512;13.450;2023-08-17T06:33:59;5.77;;;5.20;;
50555;SDS011;36508;52.512;13.450;2023-08-17T06:36:24;3.53;;;3.33;;
50555;SDS011;36508;52.512;13.450;2023-08-17T06:38:50;4.30;;;4.00;;
50555;SDS011;36508;52.512;13.450;2023-08-17T06:41:16;4.33;;;3.93;;
50555;SDS011;36508;52.512;13.450;2023-08-17T06:43:41;3.07;;;2.77;;
50555;SDS011;36508;52.512;13.450;2023-08-17T06:46:07;3.70;;;3.30;;
50555;SDS011;36508;52.512;13.450;2023-08-17T06:48:33;5.20;;;4.00;;
50555;SDS011;36508;52.512;13.450;2023-08-17T06:50:58;3.47;;;3.20;;
50555;SDS011;36508;52.512;13.450;2023-08-17T06:53:24;3.37;;;3.20;;
50555;SDS011;36508;52.512;13.450;2023-08-17T06:55:49;3.57;;;3.27;;
50555;SDS011;36508;52.512;13.450;2023-08-17T06:58:15;4.33;;;2.87;;
50555;SDS011;36508;52.512;13.450;2023-08-17T07:00:41;3.67;;;3.37;;
50555;SDS011;36508;52.512;13.450;2023-08-17T07:03:07;6.20;;;3.67;;
50555;SDS011;36508;52.512;13.450;2023-08-17T07:05:36;3.67;;;3.37;;
50555;SDS011;36508;52.512;13.450;2023-08-17T07:08:02;4.10;;;3.80;;
50555;SDS011;36508;52.512;13.450;2023-08-17T07:10:27;5.40;;;4.30;;
50555;SDS011;36508;52.512;13.450;2023-08-17T07:12:53;8.20;;;7.40;;
50555;SDS011;36508;52.512;13.450;2023-08-17T07:15:18;3.93;;;3.50;;
50555;SDS011;36508;52.512;13.450;2023-08-17T07:17:44;3.67;;;3.37;;
50555;SDS011;36508;52.512;13.450;2023-08-17T07:22:51;4.50;;;4.20;;
50555;SDS011;36508;52.512;13.450;2023-08-17T07:25:16;3.30;;;3.10;;
50555;SDS011;36508;52.512;13.450;2023-08-17T07:27:42;5.47;;;4.97;;
50555;SDS011;36508;52.512;13.450;2023-08-17T07:30:07;7.67;;;3.40;;
50555;SDS011;36508;52.512;13.450;2023-08-17T07:32:36;4.80;;;3.80;;
50555;SDS011;36508;52.512;13.450;2023-08-17T07:35:02;4.80;;;4.17;;
50555;SDS011;36508;52.512;13.450;2023-08-17T07:37:27;4.40;;;4.20;;
50555;SDS011;36508;52.512;13.450;2023-08-17T07:39:58;5.83;;;3.87;;
50555;SDS011;36508;52.512;13.450;2023-08-17T07:42:24;3.80;;;3.50;;
50555;SDS011;36508;52.512;13.450;2023-08-17T07:44:49;4.10;;;3.90;;
50555;SDS011;36508;52.512;13.450;2023-08-17T07:47:15;3.70;;;3.43;;
50555;SDS011;36508;52.512;13.450;2023-08-17T07:52:13;4.90;;;4.50;;
50555;SDS011;36508;52.512;13.450;2023-08-17T07:54:38;5.60;;;5.00;;
50555;SDS011;36508;52.512;13.450;2023-08-17T07:57:04;4.60;;;4.20;;
50555;SDS011;36508;52.512;13.450;2023-08-17T07:59:30;4.17;;;3.87;;
50555;SDS011;36508;52.512;13.450;2023-08-17T08:01:55;3.90;;;3.57;;
50555;SDS011;36508;52.512;13.450;2023-08-17T08:04:21;4.87;;;4.57;;
50555;SDS011;36508;52.512;13.450;2023-08-17T08:06:46;5.60;;;3.90;;
50555;SDS011;36508;52.512;13.450;2023-08-17T08:09:12;6.50;;;6.00;;
50555;SDS011;36508;52.512;13.450;2023-08-17T08:11:38;11.70;;;4.80;;
50555;SDS011;36508;52.512;13.450;2023-08-17T08:14:03;4.30;;;3.57;;
50555;SDS011;36508;52.512;13.450;2023-08-17T08:16:29;7.53;;;6.93;;
50555;SDS011;36508;52.512;13.450;2023-08-17T08:18:55;4.40;;;3.40;;
50555;SDS011;36508;52.512;13.450;2023-08-17T08:21:21;7.30;;;6.10;;
50555;SDS011;36508;52.512;13.450;2023-08-17T08:23:47;5.03;;;4.63;;
50555;SDS011;36508;52.512;13.450;2023-08-17T08:26:12;4.10;;;3.90;;
50555;SDS011;36508;52.512;13.450;2023-08-17T08:28:39;6.27;;;4.37;;
50555;SDS011;36508;52.512;13.450;2023-08-17T08:31:04;4.03;;;3.73;;
50555;SDS011;36508;52.512;13.450;2023-08-17T08:33:30;4.40;;;4.00;;
50555;SDS011;36508;52.512;13.450;2023-08-17T08:35:55;4.70;;;4.30;;
50555;SDS011;36508;52.512;13.450;2023-08-17T08:38:21;4.70;;;4.50;;
50555;SDS011;36508;52.512;13.450;2023-08-17T08:40:47;5.67;;;5.13;;
50555;SDS011;36508;52.512;13.450;2023-08-17T08:43:13;3.93;;;3.63;;
50555;SDS011;36508;52.512;13.450;2023-08-17T08:45:40;7.20;;;5.20;;
50555;SDS011;36508;52.512;13.450;2023-08-17T08:48:09;5.03;;;4.63;;
50555;SDS011;36508;52.512;13.450;2023-08-17T08:50:36;5.63;;;4.37;;
50555;SDS011;36508;52.512;13.450;2023-08-17T08:53:05;3.90;;;3.60;;
50555;SDS011;36508;52.512;13.450;2023-08-17T08:55:38;4.17;;;3.87;;
50555;SDS011;36508;52.512;13.450;2023-08-17T08:58:12;4.93;;;4.43;;
50555;SDS011;36508;52.512;13.450;2023-08-17T09:00:49;4.93;;;4.67;;
50555;SDS011;36508;52.512;13.450;2023-08-17T09:03:15;4.70;;;4.30;;
50555;SDS011;36508;52.512;13.450;2023-08-17T09:05:46;4.50;;;4.10;;
50555;SDS011;36508;52.512;13.450;2023-08-17T09:08:14;4.53;;;4.20;;
50555;SDS011;36508;52.512;13.450;2023-08-17T09:10:41;6.40;;;5.97;;
50555;SDS011;36508;52.512;13.450;2023-08-17T09:13:07;8.57;;;7.60;;
50555;SDS011;36508;52.512;13.450;2023-08-17T09:15:33;5.97;;;5.47;;
50555;SDS011;36508;52.512;13.450;2023-08-17T09:17:59;5.50;;;5.23;;
50555;SDS011;36508;52.512;13.450;2023-08-17T09:23:20;4.83;;;4.60;;
50555;SDS011;36508;52.512;13.450;2023-08-17T09:25:47;5.73;;;4.70;;
50555;SDS011;36508;52.512;13.450;2023-08-17T09:28:15;5.10;;;4.70;;
50555;SDS011;36508;52.512;13.450;2023-08-17T09:30:52;10.87;;;9.97;;
50555;SDS011;36508;52.512;13.450;2023-08-17T09:33:30;4.53;;;4.30;;
50555;SDS011;36508;52.512;13.450;2023-08-17T09:35:57;6.57;;;5.97;;
50555;SDS011;36508;52.512;13.450;2023-08-17T09:38:24;5.47;;;4.97;;
50555;SDS011;36508;52.512;13.450;2023-08-17T09:40:50;5.50;;;5.10;;
50555;SDS011;36508;52.512;13.450;2023-08-17T09:43:16;6.23;;;4.77;;
50555;SDS011;36508;52.512;13.450;2023-08-17T09:45:44;7.10;;;4.93;;
50555;SDS011;36508;52.512;13.450;2023-08-17T09:48:15;4.77;;;4.10;;
50555;SDS011;36508;52.512;13.450;2023-08-17T09:50:42;4.53;;;4.23;;
50555;SDS011;36508;52.512;13.450;2023-08-17T09:53:15;5.40;;;4.90;;
50555;SDS011;36508;52.512;13.450;2023-08-17T09:55:42;4.73;;;4.30;;
50555;SDS011;36508;52.512;13.450;2023-08-17T09:58:09;6.10;;;4.67;;
50555;SDS011;36508;52.512;13.450;2023-08-17T10:00:40;4.70;;;4.47;;
50555;SDS011;36508;52.512;13.450;2023-08-17T10:03:14;5.13;;;4.83;;
50555;SDS011;36508;52.512;13.450;2023-08-17T10:05:42;5.07;;;4.77;;
50555;SDS011;36508;52.512;13.450;2023-08-17T10:08:10;5.83;;;5.43;;
50555;SDS011;36508;52.512;13.450;2023-08-17T10:10:38;7.10;;;6.53;;
50555;SDS011;36508;52.512;13.450;2023-08-17T10:13:08;5.80;;;5.40;;
50555;SDS011;36508;52.512;13.450;2023-08-17T10:15:37;5.27;;;4.80;;
50555;SDS011;36508;52.512;13.450;2023-08-17T10:18:25;5.80;;;5.30;;
50555;SDS011;36508;52.512;13.450;2023-08-17T10:21:01;5.43;;;4.90;;
50555;SDS011;36508;52.512;13.450;2023-08-17T10:23:30;6.07;;;5.77;;
50555;SDS011;36508;52.512;13.450;2023-08-17T10:25:57;5.73;;;4.90;;
50555;SDS011;36508;52.512;13.450;2023-08-17T10:28:24;6.57;;;6.07;;
50555;SDS011;36508;52.512;13.450;2023-08-17T10:30:51;4.67;;;4.33;;
50555;SDS011;36508;52.512;13.450;2023-08-17T10:33:16;5.83;;;5.17;;
50555;SDS011;36508;52.512;13.450;2023-08-17T10:35:42;5.87;;;5.57;;
50555;SDS011;36508;52.512;13.450;2023-08-17T10:38:09;5.97;;;5.47;;
50555;SDS011;36508;52.512;13.450;2023-08-17T10:40:36;7.53;;;5.97;;
50555;SDS011;36508;52.512;13.450;2023-08-17T10:43:04;6.63;;;6.13;;
50555;SDS011;36508;52.512;13.450;2023-08-17T10:45:30;6.30;;;5.70;;
50555;SDS011;36508;52.512;13.450;2023-08-17T10:50:32;6.40;;;6.00;;
50555;SDS011;36508;52.512;13.450;2023-08-17T10:52:59;5.10;;;4.70;;
50555;SDS011;36508;52.512;13.450;2023-08-17T10:55:41;6.97;;;6.57;;
50555;SDS011;36508;52.512;13.450;2023-08-17T10:58:10;6.00;;;5.57;;
50555;SDS011;36508;52.512;13.450;2023-08-17T11:00:37;5.87;;;5.37;;
50555;SDS011;36508;52.512;13.450;2023-08-17T11:03:04;5.40;;;5.10;;
50555;SDS011;36508;52.512;13.450;2023-08-17T11:10:30;5.80;;;5.30;;
50555;SDS011;36508;52.512;13.450;2023-08-17T11:12:56;5.80;;;5.40;;
50555;SDS011;36508;52.512;13.450;2023-08-17T11:15:34;5.03;;;4.60;;
50555;SDS011;36508;52.512;13.450;2023-08-17T11:18:06;6.03;;;5.50;;
50555;SDS011;36508;52.512;13.450;2023-08-17T11:20:33;5.30;;;4.90;;
50555;SDS011;36508;52.512;13.450;2023-08-17T11:25:36;5.40;;;5.00;;
50555;SDS011;36508;52.512;13.450;2023-08-17T11:28:03;5.40;;;5.10;;
50555;SDS011;36508;52.512;13.450;2023-08-17T11:30:29;5.53;;;5.23;;
50555;SDS011;36508;52.512;13.450;2023-08-17T11:32:55;5.47;;;5.07;;
50555;SDS011;36508;52.512;13.450;2023-08-17T11:35:21;7.77;;;7.17;;
50555;SDS011;36508;52.512;13.450;2023-08-17T11:37:47;5.67;;;5.37;;
50555;SDS011;36508;52.512;13.450;2023-08-17T11:40:13;5.43;;;5.13;;
50555;SDS011;36508;52.512;13.450;2023-08-17T11:42:40;6.60;;;6.20;;
50555;SDS011;36508;52.512;13.450;2023-08-17T11:45:06;6.10;;;5.80;;
50555;SDS011;36508;52.512;13.450;2023-08-17T11:47:35;6.77;;;6.40;;
50555;SDS011;36508;52.512;13.450;2023-08-17T11:50:02;6.87;;;6.17;;
50555;SDS011;36508;52.512;13.450;2023-08-17T11:52:29;6.57;;;6.17;;
50555;SDS011;36508;52.512;13.450;2023-08-17T11:55:10;6.20;;;5.90;;
50555;SDS011;36508;52.512;13.450;2023-08-17T11:57:36;6.47;;;6.07;;
50555;SDS011;36508;52.512;13.450;2023-08-17T12:00:02;5.37;;;5.07;;
50555;SDS011;36508;52.512;13.450;2023-08-17T12:02:31;7.77;;;7.00;;
50555;SDS011;36508;52.512;13.450;2023-08-17T12:04:58;6.97;;;6.33;;
50555;SDS011;36508;52.512;13.450;2023-08-17T12:07:31;6.20;;;5.90;;
50555;SDS011;36508;52.512;13.450;2023-08-17T12:09:57;6.20;;;5.80;;
50555;SDS011;36508;52.512;13.450;2023-08-17T12:12:23;7.77;;;7.37;;
50555;SDS011;36508;52.512;13.450;2023-08-17T12:14:49;5.87;;;5.53;;
50555;SDS011;36508;52.512;13.450;2023-08-17T12:17:18;6.93;;;6.53;;
50555;SDS011;36508;52.512;13.450;2023-08-17T12:19:48;7.07;;;6.60;;
50555;SDS011;36508;52.512;13.450;2023-08-17T12:22:14;6.07;;;5.57;;
50555;SDS011;36508;52.512;13.450;2023-08-17T12:24:39;8.03;;;7.50;;
50555;SDS011;36508;52.512;13.450;2023-08-17T12:27:05;6.23;;;5.93;;
50555;SDS011;36508;52.512;13.450;2023-08-17T12:29:31;8.40;;;7.90;;
50555;SDS011;36508;52.512;13.450;2023-08-17T12:31:57;6.27;;;5.97;;
50555;SDS011;36508;52.512;13.450;2023-08-17T12:34:23;6.90;;;6.33;;
50555;SDS011;36508;52.512;13.450;2023-08-17T12:36:49;8.37;;;7.80;;
50555;SDS011;36508;52.512;13.450;2023-08-17T12:39:15;6.30;;;5.90;;
50555;SDS011;36508;52.512;13.450;2023-08-17T12:41:41;7.63;;;7.13;;
50555;SDS011;36508;52.512;13.450;2023-08-17T12:44:08;6.87;;;6.50;;
50555;SDS011;36508;52.512;13.450;2023-08-17T12:46:34;7.07;;;6.67;;
50555;SDS011;36508;52.512;13.450;2023-08-17T12:49:00;6.93;;;6.40;;
50555;SDS011;36508;52.512;13.450;2023-08-17T12:51:25;7.27;;;6.97;;
50555;SDS011;36508;52.512;13.450;2023-08-17T12:53:51;7.07;;;6.57;;
50555;SDS011;36508;52.512;13.450;2023-08-17T12:56:17;6.93;;;6.33;;
50555;SDS011;36508;52.512;13.450;2023-08-17T12:58:42;7.47;;;6.97;;
50555;SDS011;36508;52.512;13.450;2023-08-17T13:01:08;6.73;;;6.47;;
50555;SDS011;36508;52.512;13.450;2023-08-17T13:03:33;7.10;;;6.70;;
50555;SDS011;36508;52.512;13.450;2023-08-17T13:05:59;7.60;;;7.17;;
50555;SDS011;36508;52.512;13.450;2023-08-17T13:08:24;6.83;;;6.53;;
50555;SDS011;36508;52.512;13.450;2023-08-17T13:10:50;7.27;;;6.87;;
50555;SDS011;36508;52.512;13.450;2023-08-17T13:13:16;7.03;;;6.63;;
50555;SDS011;36508;52.512;13.450;2023-08-17T13:15:41;12.43;;;11.60;;
50555;SDS011;36508;52.512;13.450;2023-08-17T13:18:07;8.43;;;7.90;;
50555;SDS011;36508;52.512;13.450;2023-08-17T13:20:33;7.40;;;6.93;;
50555;SDS011;36508;52.512;13.450;2023-08-17T13:22:58;6.60;;;6.20;;
50555;SDS011;36508;52.512;13.450;2023-08-17T13:25:24;8.17;;;7.67;;
50555;SDS011;36508;52.512;13.450;2023-08-17T13:27:50;8.50;;;8.00;;
50555;SDS011;36508;52.512;13.450;2023-08-17T13:30:15;7.10;;;6.63;;
50555;SDS011;36508;52.512;13.450;2023-08-17T13:32:41;8.23;;;7.83;;
50555;SDS011;36508;52.512;13.450;2023-08-17T13:35:06;8.77;;;8.37;;
50555;SDS011;36508;52.512;13.450;2023-08-17T13:37:32;7.53;;;7.00;;
50555;SDS011;36508;52.512;13.450;2023-08-17T13:39:58;7.50;;;7.10;;
50555;SDS011;36508;52.512;13.450;2023-08-17T13:42:25;7.20;;;6.70;;
50555;SDS011;36508;52.512;13.450;2023-08-17T13:44:50;7.07;;;6.60;;
50555;SDS011;36508;52.512;13.450;2023-08-17T13:47:16;6.57;;;6.27;;
50555;SDS011;36508;52.512;13.450;2023-08-17T13:49:41;7.90;;;7.40;;
50555;SDS011;36508;52.512;13.450;2023-08-17T13:52:07;7.40;;;6.70;;
50555;SDS011;36508;52.512;13.450;2023-08-17T13:54:33;7.67;;;7.27;;
50555;SDS011;36508;52.512;13.450;2023-08-17T13:56:58;6.87;;;6.53;;
50555;SDS011;36508;52.512;13.450;2023-08-17T13:59:24;7.03;;;6.70;;
50555;SDS011;36508;52.512;13.450;2023-08-17T14:01:50;7.10;;;6.60;;
50555;SDS011;36508;52.512;13.450;2023-08-17T14:04:15;9.60;;;8.90;;
50555;SDS011;36508;52.512;13.450;2023-08-17T14:06:42;8.27;;;7.87;;
50555;SDS011;36508;52.512;13.450;2023-08-17T14:09:08;6.70;;;6.40;;
50555;SDS011;36508;52.512;13.450;2023-08-17T14:11:34;7.77;;;7.27;;
50555;SDS011;36508;52.512;13.450;2023-08-17T14:13:59;6.40;;;6.00;;
50555;SDS011;36508;52.512;13.450;2023-08-17T14:16:25;6.33;;;5.90;;
50555;SDS011;36508;52.512;13.450;2023-08-17T14:18:51;6.53;;;6.30;;
50555;SDS011;36508;52.512;13.450;2023-08-17T14:21:19;7.27;;;6.87;;
50555;SDS011;36508;52.512;13.450;2023-08-17T14:23:45;6.23;;;5.90;;
50555;SDS011;36508;52.512;13.450;2023-08-17T14:26:11;6.57;;;6.27;;
50555;SDS011;36508;52.512;13.450;2023-08-17T14:28:37;6.33;;;6.03;;
50555;SDS011;36508;52.512;13.450;2023-08-17T14:31:02;7.70;;;7.20;;
50555;SDS011;36508;52.512;13.450;2023-08-17T14:33:28;7.30;;;6.80;;
50555;SDS011;36508;52.512;13.450;2023-08-17T14:35:53;7.80;;;7.40;;
50555;SDS011;36508;52.512;13.450;2023-08-17T14:38:19;6.73;;;6.43;;
50555;SDS011;36508;52.512;13.450;2023-08-17T14:40:45;6.37;;;5.97;;
50555;SDS011;36508;52.512;13.450;2023-08-17T14:43:12;5.70;;;5.40;;
50555;SDS011;36508;52.512;13.450;2023-08-17T14:45:39;5.97;;;5.67;;
50555;SDS011;36508;52.512;13.450;2023-08-17T14:48:08;6.77;;;6.37;;
50555;SDS011;36508;52.512;13.450;2023-08-17T14:50:34;7.57;;;7.07;;